createdAt,value
2019-03-17T00:01:40.486Z,11.30
2019-03-17T00:04:10.281Z,11.25
2019-03-17T00:06:40.196Z,11.31
2019-03-17T00:09:10.152Z,11.30
2019-03-17T00:11:40.035Z,11.39
2019-03-17T00:14:09.948Z,11.50
2019-03-17T00:16:39.917Z,11.53
2019-03-17T00:19:09.790Z,11.37
2019-03-17T00:21:39.705Z,11.40
2019-03-17T00:24:09.698Z,11.45
2019-03-17T00:26:39.641Z,11.35
2019-03-17T00:29:09.447Z,11.37
2019-03-17T00:31:39.430Z,11.36
2019-03-17T00:34:09.289Z,11.43
2019-03-17T00:36:39.200Z,11.35
2019-03-17T00:39:09.165Z,11.36
2019-03-17T00:41:39.008Z,11.29
2019-03-17T00:44:08.727Z,11.30
2019-03-17T00:46:38.342Z,11.36
2019-03-17T00:49:08.315Z,11.31
2019-03-17T00:51:38.084Z,11.40
2019-03-17T00:54:08.105Z,11.42
2019-03-17T00:56:37.934Z,11.39
2019-03-17T00:59:07.841Z,11.34
2019-03-17T01:01:37.817Z,11.36
2019-03-17T01:04:07.787Z,11.45
2019-03-17T01:06:37.584Z,11.42
2019-03-17T01:09:08.137Z,11.35
2019-03-17T01:11:37.907Z,11.29
2019-03-17T01:14:07.745Z,11.36
2019-03-17T01:16:37.713Z,11.31
2019-03-17T01:19:07.686Z,11.28
2019-03-17T01:21:37.596Z,11.14
2019-03-17T01:24:10.279Z,11.13
2019-03-17T01:26:39.056Z,11.09
2019-03-17T01:29:08.884Z,11.09
2019-03-17T01:31:38.848Z,11.07
2019-03-17T01:34:08.500Z,11.03
2019-03-17T01:36:38.402Z,11.00
2019-03-17T01:39:08.652Z,11.05
2019-03-17T01:41:38.625Z,11.06
2019-03-17T01:44:08.494Z,11.10
2019-03-17T01:46:38.304Z,10.98
2019-03-17T01:49:08.261Z,11.02
2019-03-17T01:51:38.143Z,10.99
2019-03-17T01:54:07.831Z,11.06
2019-03-17T01:56:37.586Z,11.00
2019-03-17T01:59:07.344Z,11.06
2019-03-17T02:01:37.069Z,11.08
2019-03-17T02:04:07.053Z,11.10
2019-03-17T02:06:36.819Z,11.12
2019-03-17T02:09:08.020Z,11.14
2019-03-17T02:11:37.783Z,11.18
2019-03-17T02:14:07.469Z,11.21
2019-03-17T02:16:37.181Z,11.28
2019-03-17T02:19:07.034Z,11.28
2019-03-17T02:21:36.910Z,11.29
2019-03-17T02:24:06.733Z,11.30
2019-03-17T02:26:37.711Z,11.23
2019-03-17T02:29:07.548Z,11.27
2019-03-17T02:31:37.421Z,11.30
2019-03-17T02:34:07.381Z,11.35
2019-03-17T02:36:37.254Z,11.33
2019-03-17T02:39:07.562Z,11.18
2019-03-17T02:41:37.214Z,11.22
2019-03-17T02:44:07.118Z,11.25
2019-03-17T02:46:36.926Z,11.23
2019-03-17T02:49:06.894Z,11.13
2019-03-17T02:51:36.740Z,10.90
2019-03-17T02:54:06.541Z,10.61
2019-03-17T02:56:37.545Z,10.28
2019-03-17T02:59:07.324Z,9.91
2019-03-17T03:01:37.253Z,9.78
2019-03-17T03:04:07.037Z,9.93
2019-03-17T03:06:36.741Z,9.73
2019-03-17T03:09:07.866Z,9.60
2019-03-17T03:11:37.932Z,9.68
2019-03-17T03:14:07.725Z,9.68
2019-03-17T03:16:37.360Z,9.66
2019-03-17T03:19:07.150Z,9.51
2019-03-17T03:21:36.923Z,9.53
2019-03-17T03:24:06.810Z,9.52
2019-03-17T03:26:36.587Z,9.46
2019-03-17T03:29:06.802Z,9.40
2019-03-17T03:31:36.659Z,9.25
2019-03-17T03:34:06.365Z,9.23
2019-03-17T03:36:36.091Z,9.15
2019-03-17T03:39:07.431Z,9.12
2019-03-17T03:41:37.316Z,9.02
2019-03-17T03:44:07.049Z,8.93
2019-03-17T03:46:36.867Z,8.79
2019-03-17T03:49:06.715Z,8.71
2019-03-17T03:51:36.377Z,8.71
2019-03-17T03:54:06.089Z,8.73
2019-03-17T03:56:35.752Z,8.79
2019-03-17T03:59:06.975Z,8.77
2019-03-17T04:01:36.776Z,8.78
2019-03-17T04:04:06.631Z,8.69
2019-03-17T04:06:36.513Z,8.62
2019-03-17T04:09:08.379Z,8.53
2019-03-17T04:11:38.129Z,8.53
2019-03-17T04:14:07.999Z,8.49
2019-03-17T04:16:37.795Z,8.45
2019-03-17T04:19:07.527Z,8.46
2019-03-17T04:21:37.336Z,8.42
2019-03-17T04:24:07.146Z,8.42
2019-03-17T04:26:37.332Z,8.33
2019-03-17T04:29:07.198Z,8.27
2019-03-17T04:31:37.008Z,8.34
2019-03-17T04:34:06.755Z,8.32
2019-03-17T04:36:40.369Z,8.31
2019-03-17T04:39:08.808Z,8.39
2019-03-17T04:41:38.876Z,8.44
2019-03-17T04:44:20.057Z,8.43
2019-03-17T04:46:40.171Z,8.40
2019-03-17T04:49:11.132Z,8.48
2019-03-17T04:51:40.938Z,8.57
2019-03-17T04:54:10.967Z,8.57
2019-03-17T04:56:40.818Z,8.49
2019-03-17T04:59:10.575Z,8.45
2019-03-17T05:01:41.730Z,8.54
2019-03-17T05:04:11.657Z,8.62
2019-03-17T05:06:52.112Z,8.68
2019-03-17T05:09:12.801Z,8.83
2019-03-17T05:11:42.780Z,9.05
2019-03-17T05:14:12.533Z,9.20
2019-03-17T05:16:42.371Z,9.39
2019-03-17T05:19:12.203Z,9.42
2019-03-17T05:21:42.077Z,9.68
2019-03-17T05:24:11.708Z,9.76
2019-03-17T05:26:43.275Z,9.71
2019-03-17T05:29:13.283Z,9.74
2019-03-17T05:31:43.168Z,9.87
2019-03-17T05:34:13.035Z,9.97
2019-03-17T05:36:42.939Z,9.89
2019-03-17T05:39:13.896Z,9.91
2019-03-17T05:41:43.778Z,10.02
2019-03-17T05:44:13.810Z,10.07
2019-03-17T05:46:44.848Z,10.27
2019-03-17T05:49:14.652Z,10.37
2019-03-17T05:51:44.481Z,10.46
2019-03-17T05:54:14.444Z,10.61
2019-03-17T05:56:44.288Z,10.58
2019-03-17T05:59:13.905Z,10.45
2019-03-17T06:01:43.854Z,10.60
2019-03-17T06:04:13.659Z,10.77
2019-03-17T06:06:43.576Z,10.71
2019-03-17T06:09:13.644Z,10.88
2019-03-17T06:11:43.408Z,10.97
2019-03-17T06:14:13.320Z,11.07
2019-03-17T06:16:43.285Z,11.27
2019-03-17T06:19:13.257Z,11.38
2019-03-17T06:21:43.073Z,11.46
2019-03-17T06:24:13.214Z,11.37
2019-03-17T06:26:43.904Z,11.34
2019-03-17T06:29:13.625Z,11.27
2019-03-17T06:31:43.474Z,11.40
2019-03-17T06:34:13.278Z,11.43
2019-03-17T06:36:43.294Z,11.57
2019-03-17T06:39:13.123Z,11.61
2019-03-17T06:41:42.998Z,11.73
2019-03-17T06:44:12.733Z,11.75
2019-03-17T06:46:42.520Z,12.06
2019-03-17T06:49:12.422Z,12.31
2019-03-17T06:51:42.282Z,12.20
2019-03-17T06:54:13.268Z,12.59
2019-03-17T06:56:43.142Z,12.91
2019-03-17T06:59:12.925Z,12.93
2019-03-17T07:01:42.883Z,12.99
2019-03-17T07:04:12.681Z,13.15
2019-03-17T07:06:42.596Z,13.35
2019-03-17T07:09:13.836Z,13.35
2019-03-17T07:11:43.642Z,13.25
2019-03-17T07:14:13.587Z,13.42
2019-03-17T07:16:43.491Z,13.63
2019-03-17T07:19:13.410Z,13.87
2019-03-17T07:21:43.381Z,13.98
2019-03-17T07:24:13.244Z,13.99
2019-03-17T07:26:43.163Z,14.11
2019-03-17T07:29:13.132Z,14.15
2019-03-17T07:31:42.998Z,14.23
2019-03-17T07:34:14.848Z,14.29
2019-03-17T07:36:45.873Z,14.52
2019-03-17T07:39:15.489Z,14.65
2019-03-17T07:41:45.222Z,14.78
2019-03-17T07:44:15.012Z,14.66
2019-03-17T07:46:44.723Z,14.78
2019-03-17T07:49:14.395Z,15.15
2019-03-17T07:51:44.160Z,15.10
2019-03-17T07:54:13.870Z,15.08
2019-03-17T07:56:43.730Z,15.16
2019-03-17T07:59:13.500Z,15.08
2019-03-17T08:01:43.511Z,15.49
2019-03-17T08:04:13.391Z,15.81
2019-03-17T08:06:43.266Z,15.93
2019-03-17T08:09:13.178Z,15.83
2019-03-17T08:11:42.924Z,15.39
2019-03-17T08:14:12.824Z,15.49
2019-03-17T08:16:42.705Z,15.56
2019-03-17T08:19:12.419Z,15.73
2019-03-17T08:21:43.367Z,15.55
2019-03-17T08:24:13.336Z,15.48
2019-03-17T08:26:43.200Z,15.59
2019-03-17T08:29:14.139Z,15.63
2019-03-17T08:31:43.945Z,15.62
2019-03-17T08:34:13.880Z,15.64
2019-03-17T08:36:47.103Z,15.60
2019-03-17T08:39:16.994Z,15.63
2019-03-17T08:41:48.249Z,15.73
2019-03-17T08:44:18.033Z,15.60
2019-03-17T08:46:48.773Z,15.78
2019-03-17T08:49:18.668Z,15.79
2019-03-17T08:51:48.523Z,15.69
2019-03-17T08:54:19.694Z,15.87
2019-03-17T08:56:49.580Z,16.02
2019-03-17T08:59:19.472Z,16.08
2019-03-17T09:01:50.533Z,16.14
2019-03-17T09:04:20.365Z,16.18
2019-03-17T09:06:50.378Z,16.36
2019-03-17T09:09:20.348Z,16.22
2019-03-17T09:11:50.112Z,16.14
2019-03-17T09:14:20.078Z,16.08
2019-03-17T09:16:49.953Z,16.13
2019-03-17T09:19:19.858Z,16.26
2019-03-17T09:21:49.587Z,16.16
2019-03-17T09:24:19.468Z,16.21
2019-03-17T09:26:49.178Z,16.29
2019-03-17T09:29:18.958Z,16.56
2019-03-17T09:31:48.833Z,16.44
2019-03-17T09:34:18.722Z,16.63
2019-03-17T09:36:48.384Z,16.59
2019-03-17T09:39:19.476Z,16.74
2019-03-17T09:41:49.313Z,16.76
2019-03-17T09:44:19.272Z,16.85
2019-03-17T09:46:49.229Z,16.39
2019-03-17T09:49:19.036Z,16.34
2019-03-17T09:51:49.955Z,15.87
2019-03-17T09:54:19.706Z,15.65
2019-03-17T09:56:50.930Z,15.59
2019-03-17T09:59:20.655Z,15.62
2019-03-17T10:01:50.288Z,15.86
2019-03-17T10:04:20.257Z,15.78
2019-03-17T10:06:50.124Z,16.12
2019-03-17T10:09:21.283Z,15.98
2019-03-17T10:11:51.183Z,16.12
2019-03-17T10:14:20.882Z,16.17
2019-03-17T10:16:50.743Z,16.22
2019-03-17T10:19:20.401Z,16.31
2019-03-17T10:21:50.213Z,16.33
2019-03-17T10:24:19.873Z,16.53
2019-03-17T10:26:49.661Z,16.90
2019-03-17T10:29:19.577Z,17.25
2019-03-17T10:31:50.822Z,17.47
2019-03-17T10:34:20.715Z,17.27
2019-03-17T10:36:51.681Z,16.99
2019-03-17T10:39:21.480Z,16.93
2019-03-17T10:41:51.388Z,17.19
2019-03-17T10:44:21.150Z,17.43
2019-03-17T10:46:51.027Z,17.09
2019-03-17T10:49:20.840Z,17.01
2019-03-17T10:51:50.684Z,17.07
2019-03-17T10:54:20.588Z,17.33
2019-03-17T10:56:51.522Z,17.49
2019-03-17T10:59:21.317Z,17.19
2019-03-17T11:01:51.029Z,17.56
2019-03-17T11:04:20.885Z,17.72
2019-03-17T11:06:50.791Z,17.95
2019-03-17T11:09:25.391Z,18.10
2019-03-17T11:11:52.360Z,18.18
2019-03-17T11:14:22.158Z,18.34
2019-03-17T11:16:51.912Z,18.00
2019-03-17T11:19:21.601Z,18.32
2019-03-17T11:21:51.389Z,18.38
2019-03-17T11:24:21.374Z,18.72
2019-03-17T11:26:51.144Z,18.88
2019-03-17T11:29:21.045Z,19.00
2019-03-17T11:31:51.033Z,18.94
2019-03-17T11:34:20.919Z,18.97
2019-03-17T11:36:50.917Z,18.89
2019-03-17T11:39:20.745Z,19.02
2019-03-17T11:41:50.649Z,18.85
2019-03-17T11:44:20.537Z,18.89
2019-03-17T11:46:50.391Z,18.57
2019-03-17T11:49:20.065Z,18.11
2019-03-17T11:51:50.005Z,17.79
2019-03-17T11:54:20.021Z,17.68
2019-03-17T11:56:49.816Z,17.57
2019-03-17T11:59:19.654Z,17.46
2019-03-17T12:01:49.704Z,17.67
2019-03-17T12:04:19.484Z,17.86
2019-03-17T12:06:49.400Z,17.84
2019-03-17T12:09:28.573Z,17.91
2019-03-17T12:11:50.955Z,18.01
2019-03-17T12:14:20.792Z,18.08
2019-03-17T12:16:51.950Z,17.96
2019-03-17T12:19:21.828Z,18.08
2019-03-17T12:21:51.751Z,18.19
2019-03-17T12:24:21.763Z,18.41
2019-03-17T12:26:51.592Z,18.54
2019-03-17T12:29:21.495Z,18.62
2019-03-17T12:31:52.575Z,18.75
2019-03-17T12:34:28.057Z,18.76
2019-03-17T12:36:53.818Z,18.65
2019-03-17T12:39:23.674Z,18.61
2019-03-17T12:41:53.348Z,18.54
2019-03-17T12:44:23.156Z,18.44
2019-03-17T12:46:53.049Z,18.17
2019-03-17T12:49:22.906Z,18.12
2019-03-17T12:51:52.913Z,17.89
2019-03-17T12:54:22.781Z,17.75
2019-03-17T12:56:52.654Z,17.70
2019-03-17T12:59:22.688Z,17.76
2019-03-17T13:01:52.505Z,17.93
2019-03-17T13:04:22.445Z,18.09
2019-03-17T13:06:52.194Z,18.35
2019-03-17T13:09:22.042Z,18.54
2019-03-17T13:11:53.079Z,18.68
2019-03-17T13:14:22.888Z,18.64
2019-03-17T13:16:52.478Z,18.88
2019-03-17T13:19:22.925Z,19.05
2019-03-17T13:21:52.921Z,19.15
2019-03-17T13:24:22.746Z,19.67
2019-03-17T13:26:52.668Z,21.36
2019-03-17T13:29:22.570Z,21.36
2019-03-17T13:31:52.251Z,21.18
2019-03-17T13:34:22.049Z,21.18
2019-03-17T13:36:51.933Z,20.96
2019-03-17T13:39:22.978Z,20.94
2019-03-17T13:41:52.892Z,20.91
2019-03-17T13:44:22.709Z,20.74
2019-03-17T13:46:52.815Z,20.09
2019-03-17T13:49:22.966Z,20.72
2019-03-17T13:51:52.871Z,20.72
2019-03-17T13:54:24.035Z,20.59
2019-03-17T13:56:53.906Z,20.02
2019-03-17T13:59:23.822Z,19.76
2019-03-17T14:01:53.587Z,20.11
2019-03-17T14:04:23.352Z,19.71
2019-03-17T14:06:53.302Z,19.88
2019-03-17T14:09:23.161Z,19.65
2019-03-17T14:11:53.019Z,18.96
2019-03-17T14:14:22.930Z,18.80
2019-03-17T14:16:52.751Z,19.02
2019-03-17T14:19:22.527Z,18.91
2019-03-17T14:21:52.288Z,18.39
2019-03-17T14:24:22.175Z,17.99
2019-03-17T14:26:51.935Z,17.92
2019-03-17T14:29:21.706Z,18.22
2019-03-17T14:31:51.648Z,18.21
2019-03-17T14:34:21.514Z,18.60
2019-03-17T14:36:51.461Z,19.55
2019-03-17T14:39:21.294Z,19.97
2019-03-17T14:41:51.260Z,19.66
2019-03-17T14:44:21.122Z,20.08
2019-03-17T14:46:51.040Z,19.51
2019-03-17T14:49:21.002Z,18.96
2019-03-17T14:51:50.874Z,19.46
2019-03-17T14:54:20.788Z,20.00
2019-03-17T14:56:50.857Z,20.31
2019-03-17T14:59:20.591Z,19.86
2019-03-17T15:01:50.425Z,19.68
2019-03-17T15:04:21.445Z,18.63
2019-03-17T15:06:51.110Z,18.36
2019-03-17T15:09:20.884Z,19.38
2019-03-17T15:11:50.692Z,18.36
2019-03-17T15:14:20.421Z,17.74
2019-03-17T15:16:50.246Z,17.71
2019-03-17T15:19:21.185Z,17.68
2019-03-17T15:21:50.985Z,17.65
2019-03-17T15:24:20.696Z,17.42
2019-03-17T15:26:50.530Z,16.99
2019-03-17T15:29:21.689Z,17.03
2019-03-17T15:31:51.633Z,16.80
2019-03-17T15:34:21.500Z,16.52
2019-03-17T15:36:51.090Z,16.49
2019-03-17T15:39:20.961Z,16.57
2019-03-17T15:41:50.843Z,16.85
2019-03-17T15:44:20.915Z,15.98
2019-03-17T15:46:52.028Z,15.62
2019-03-17T15:49:21.899Z,15.49
2019-03-17T15:51:51.613Z,15.00
2019-03-17T15:54:21.743Z,15.02
2019-03-17T15:56:51.457Z,14.90
2019-03-17T15:59:21.243Z,14.68
2019-03-17T16:01:51.105Z,14.55
2019-03-17T16:04:20.791Z,14.17
2019-03-17T16:06:50.704Z,14.18
2019-03-17T16:09:20.467Z,13.86
2019-03-17T16:11:50.128Z,13.79
2019-03-17T16:14:19.941Z,13.75
2019-03-17T16:16:49.723Z,13.33
2019-03-17T16:19:19.474Z,13.08
2019-03-17T16:21:49.181Z,12.77
2019-03-17T16:24:19.146Z,12.62
2019-03-17T16:26:49.212Z,12.49
2019-03-17T16:29:18.943Z,12.16
2019-03-17T16:31:48.795Z,11.88
2019-03-17T16:34:18.833Z,11.81
2019-03-17T16:36:48.489Z,11.68
2019-03-17T16:39:18.369Z,11.55
2019-03-17T16:41:48.217Z,11.34
2019-03-17T16:44:18.257Z,11.26
2019-03-17T16:46:48.121Z,11.09
2019-03-17T16:49:17.865Z,10.97
2019-03-17T16:51:47.905Z,11.06
2019-03-17T16:54:17.862Z,11.00
2019-03-17T16:56:47.608Z,11.00
2019-03-17T16:59:17.428Z,10.77
2019-03-17T17:01:47.300Z,10.85
2019-03-17T17:04:17.088Z,10.85
2019-03-17T17:06:47.114Z,10.76
2019-03-17T17:09:16.938Z,10.71
2019-03-17T17:11:55.648Z,10.70
2019-03-17T17:14:18.159Z,10.78
2019-03-17T17:16:48.106Z,10.72
2019-03-17T17:19:17.890Z,10.67
2019-03-17T17:21:47.870Z,10.79
2019-03-17T17:24:17.687Z,10.76
2019-03-17T17:26:47.859Z,10.78
2019-03-17T17:29:18.089Z,10.83
2019-03-17T17:31:47.850Z,10.76
2019-03-17T17:34:17.673Z,10.79
2019-03-17T17:36:47.633Z,10.72
2019-03-17T17:39:17.582Z,10.69
2019-03-17T17:41:47.350Z,10.67
2019-03-17T17:44:17.176Z,10.62
2019-03-17T17:46:47.264Z,10.53
2019-03-17T17:49:17.183Z,10.68
2019-03-17T17:51:47.008Z,10.76
2019-03-17T17:54:16.789Z,10.68
2019-03-17T17:56:46.559Z,10.64
2019-03-17T17:59:16.457Z,10.55
2019-03-17T18:01:46.322Z,10.59
2019-03-17T18:04:16.248Z,10.62
2019-03-17T18:06:46.015Z,10.64
2019-03-17T18:09:16.041Z,10.66
2019-03-17T18:11:45.976Z,10.64
2019-03-17T18:14:15.944Z,10.68
2019-03-17T18:16:46.054Z,10.66
2019-03-17T18:19:15.788Z,10.66
2019-03-17T18:21:45.821Z,10.70
2019-03-17T18:24:15.880Z,10.70
2019-03-17T18:26:45.864Z,10.72
2019-03-17T18:29:16.995Z,10.76
2019-03-17T18:31:47.034Z,10.69
2019-03-17T18:34:16.969Z,10.75
2019-03-17T18:36:46.774Z,10.72
2019-03-17T18:39:17.920Z,10.83
2019-03-17T18:41:47.726Z,10.88
2019-03-17T18:44:17.617Z,10.96
2019-03-17T18:46:47.573Z,11.00
2019-03-17T18:49:17.438Z,11.04
2019-03-17T18:51:47.368Z,11.09
2019-03-17T18:54:17.362Z,11.10
2019-03-17T18:56:47.206Z,11.09
2019-03-17T18:59:18.021Z,11.09
2019-03-17T19:01:48.223Z,11.08
2019-03-17T19:04:19.458Z,11.12
2019-03-17T19:06:49.327Z,11.10
2019-03-17T19:09:20.484Z,11.15
2019-03-17T19:11:50.387Z,11.15
2019-03-17T19:14:20.343Z,11.10
2019-03-17T19:16:50.284Z,11.02
2019-03-17T19:19:19.961Z,11.08
2019-03-17T19:21:49.936Z,11.05
2019-03-17T19:24:21.352Z,11.01
2019-03-17T19:26:51.630Z,11.03
2019-03-17T19:29:21.444Z,11.03
2019-03-17T19:31:51.309Z,11.06
2019-03-17T19:34:21.108Z,11.04
2019-03-17T19:36:51.114Z,11.03
2019-03-17T19:39:20.953Z,11.04
2019-03-17T19:41:51.154Z,11.09
2019-03-17T19:44:21.325Z,11.16
2019-03-17T19:46:51.093Z,11.16
2019-03-17T19:49:20.884Z,11.20
2019-03-17T19:51:50.861Z,11.17
2019-03-17T19:54:20.732Z,11.22
2019-03-17T19:56:50.423Z,11.21
2019-03-17T19:59:20.407Z,11.29
2019-03-17T20:01:50.265Z,11.26
2019-03-17T20:04:30.138Z,11.24
2019-03-17T20:06:51.763Z,11.22
2019-03-17T20:09:21.726Z,11.18
2019-03-17T20:11:51.469Z,11.25
2019-03-17T20:14:21.606Z,11.23
2019-03-17T20:16:51.458Z,11.19
2019-03-17T20:19:22.683Z,11.18
2019-03-17T20:21:52.569Z,11.08
2019-03-17T20:24:22.494Z,11.02
2019-03-17T20:26:52.618Z,10.92
2019-03-17T20:29:22.974Z,10.91
2019-03-17T20:31:52.963Z,10.82
2019-03-17T20:34:22.902Z,10.75
2019-03-17T20:36:53.943Z,10.71
2019-03-17T20:39:23.901Z,10.63
2019-03-17T20:41:55.097Z,10.57
2019-03-17T20:44:24.794Z,10.60
2019-03-17T20:46:54.618Z,10.54
2019-03-17T20:49:24.579Z,10.56
2019-03-17T20:51:54.428Z,10.48
2019-03-17T20:54:24.489Z,10.51
2019-03-17T20:56:54.582Z,10.47
2019-03-17T20:59:24.505Z,10.52
2019-03-17T21:01:54.457Z,10.43
2019-03-17T21:04:24.358Z,10.26
2019-03-17T21:06:54.063Z,10.28
2019-03-17T21:09:24.794Z,10.22
2019-03-17T21:11:54.600Z,10.14
2019-03-17T21:14:24.842Z,10.07
2019-03-17T21:16:54.514Z,9.86
2019-03-17T21:19:24.451Z,9.96
2019-03-17T21:21:54.634Z,9.97
2019-03-17T21:24:24.600Z,9.89
2019-03-17T21:26:54.484Z,9.81
2019-03-17T21:29:24.379Z,9.81
2019-03-17T21:31:54.304Z,9.83
2019-03-17T21:34:24.037Z,9.70
2019-03-17T21:36:53.953Z,9.50
2019-03-17T21:39:23.567Z,9.46
2019-03-17T21:41:53.376Z,9.53
2019-03-17T21:44:23.137Z,9.53
2019-03-17T21:46:53.000Z,9.46
2019-03-17T21:49:22.717Z,9.50
2019-03-17T21:51:52.359Z,9.49
2019-03-17T21:54:22.273Z,9.53
2019-03-17T21:56:51.961Z,9.51
2019-03-17T21:59:21.942Z,9.60
2019-03-17T22:01:51.704Z,9.66
2019-03-17T22:04:21.607Z,9.55
2019-03-17T22:06:52.525Z,9.45
2019-03-17T22:09:22.292Z,9.42
2019-03-17T22:11:53.098Z,9.31
2019-03-17T22:14:22.968Z,9.43
2019-03-17T22:16:52.622Z,9.36
2019-03-17T22:19:22.238Z,9.21
2019-03-17T22:21:52.196Z,9.03
2019-03-17T22:24:21.981Z,8.96
2019-03-17T22:26:51.780Z,8.96
2019-03-17T22:29:21.680Z,9.02
2019-03-17T22:31:51.617Z,8.90
2019-03-17T22:34:21.376Z,8.92
2019-03-17T22:36:51.265Z,8.90
2019-03-17T22:39:20.998Z,8.75
2019-03-17T22:41:50.784Z,8.70
2019-03-17T22:44:25.087Z,8.74
2019-03-17T22:46:52.147Z,8.69
2019-03-17T22:49:21.975Z,8.67
2019-03-17T22:51:52.108Z,8.53
2019-03-17T22:54:22.165Z,8.37
2019-03-17T22:56:51.798Z,8.32
2019-03-17T22:59:21.648Z,8.26
2019-03-17T23:01:52.770Z,8.25
2019-03-17T23:04:22.584Z,8.28
2019-03-17T23:06:52.386Z,8.30
2019-03-17T23:09:22.095Z,8.36
2019-03-17T23:11:51.878Z,8.40
2019-03-17T23:14:21.635Z,8.38
2019-03-17T23:16:51.542Z,8.46
2019-03-17T23:19:21.443Z,8.46
2019-03-17T23:21:51.178Z,8.33
2019-03-17T23:24:21.071Z,8.27
2019-03-17T23:26:50.912Z,8.25
2019-03-17T23:29:20.715Z,8.23
2019-03-17T23:31:50.758Z,7.97
2019-03-17T23:34:20.662Z,8.00
2019-03-17T23:36:50.473Z,7.94
2019-03-17T23:39:20.377Z,7.84
2019-03-17T23:41:50.318Z,7.69
2019-03-17T23:44:20.148Z,7.68
2019-03-17T23:46:49.995Z,7.72
2019-03-17T23:49:19.744Z,7.73
2019-03-17T23:51:49.463Z,7.78
2019-03-17T23:54:19.471Z,7.81
2019-03-17T23:56:49.195Z,7.87
2019-03-17T23:59:18.950Z,7.85
